CSW86 LATI-EDDH
Flight info
| Callsign | CSW86 |
|---|---|
| Flight time | N/A |
| Altitude | 28000 |
| Route | INLO2W INLOT L604 RETRA POD GACMO EMKES KOMAR LAMSI ARMUT ABGUS DIRBO T902 RARUP RARU6A |
| Aircraft | TBM9/L-ICAO/L |
Departure
| Time | 2026-04-30 20:20 |
|---|---|
| Airport | Tirana International Airport Mother Teresa (LATI) |
Arrival
| Time | N/A |
|---|---|
| Airport | Hamburg Helmut Schmidt Airport (EDDH) |
| Time | Latitude | Longitude | Altitude | Speed | Heading |
|---|---|---|---|---|---|
| 2026-04-30 20:10 | 41.41834 | 19.71530 | 118 ft | 0 kts | 264° |
| 2026-04-30 20:14 | 41.41822 | 19.71532 | 117 ft | 6 kts | 125° |
| 2026-04-30 20:15 | 41.41819 | 19.71587 | 118 ft | 7 kts | 108° |
| 2026-04-30 20:15 | 41.41778 | 19.71603 | 119 ft | 8 kts | 173° |
| 2026-04-30 20:15 | 41.41677 | 19.71617 | 118 ft | 21 kts | 172° |
| 2026-04-30 20:15 | 41.41516 | 19.71637 | 120 ft | 26 kts | 174° |
| 2026-04-30 20:16 | 41.41323 | 19.71669 | 120 ft | 30 kts | 180° |
| 2026-04-30 20:16 | 41.41117 | 19.71691 | 123 ft | 30 kts | 173° |
| 2026-04-30 20:16 | 41.40912 | 19.71717 | 123 ft | 29 kts | 173° |
| 2026-04-30 20:16 | 41.40715 | 19.71745 | 124 ft | 25 kts | 173° |
| 2026-04-30 20:17 | 41.40635 | 19.71849 | 126 ft | 7 kts | 89° |
| 2026-04-30 20:17 | 41.40635 | 19.71850 | 126 ft | 0 kts | 90° |
| 2026-04-30 20:17 | 41.40638 | 19.71866 | 124 ft | 8 kts | 78° |
| 2026-04-30 20:18 | 41.40671 | 19.72018 | 125 ft | 26 kts | 79° |
| 2026-04-30 20:18 | 41.40683 | 19.72132 | 124 ft | 3 kts | 26° |
| 2026-04-30 20:18 | 41.40696 | 19.72151 | 126 ft | 3 kts | 38° |
| 2026-04-30 20:18 | 41.40717 | 19.72157 | 126 ft | 0 kts | 355° |
| 2026-04-30 20:19 | 41.40719 | 19.72157 | 126 ft | 4 kts | 352° |
| 2026-04-30 20:19 | 41.40931 | 19.72123 | 124 ft | 60 kts | 354° |
| 2026-04-30 20:20 | 41.41543 | 19.72030 | 188 ft | 108 kts | 351° |
| 2026-04-30 20:20 | 41.42274 | 19.71904 | 503 ft | 113 kts | 354° |
| 2026-04-30 20:20 | 41.43052 | 19.71789 | 913 ft | 98 kts | 347° |
| 2026-04-30 20:20 | 41.43712 | 19.71645 | 1281 ft | 94 kts | 348° |
| 2026-04-30 20:21 | 41.44319 | 19.71418 | 1823 ft | 95 kts | 351° |
| 2026-04-30 20:21 | 41.45148 | 19.71052 | 1793 ft | 152 kts | 345° |
| 2026-04-30 20:21 | 41.46273 | 19.71014 | 1724 ft | 167 kts | 10° |
| 2026-04-30 20:21 | 41.47417 | 19.71241 | 1735 ft | 170 kts | 1° |
| 2026-04-30 20:22 | 41.48603 | 19.71155 | 1739 ft | 171 kts | 355° |
| 2026-04-30 20:22 | 41.49784 | 19.71012 | 1814 ft | 168 kts | 355° |
| 2026-04-30 20:22 | 41.50945 | 19.70881 | 1897 ft | 166 kts | 358° |
| 2026-04-30 20:22 | 41.52087 | 19.70764 | 1988 ft | 164 kts | 357° |
| 2026-04-30 20:23 | 41.53220 | 19.70632 | 2095 ft | 164 kts | 357° |
| 2026-04-30 20:23 | 41.54347 | 19.70497 | 2198 ft | 164 kts | 357° |
| 2026-04-30 20:23 | 41.55462 | 19.70365 | 2440 ft | 159 kts | 359° |
| 2026-04-30 20:23 | 41.56556 | 19.70249 | 2656 ft | 157 kts | 359° |
| 2026-04-30 20:24 | 41.57634 | 19.70126 | 2870 ft | 154 kts | 359° |
| 2026-04-30 20:24 | 41.58688 | 19.70003 | 3096 ft | 151 kts | 359° |
| 2026-04-30 20:24 | 41.59691 | 19.69890 | 3487 ft | 138 kts | 1° |
| 2026-04-30 20:24 | 41.60594 | 19.69704 | 3894 ft | 125 kts | 342° |
| 2026-04-30 20:25 | 41.62100 | 19.69406 | 4515 ft | 93 kts | 350° |
| 2026-04-30 20:25 | 41.62713 | 19.69289 | 4671 ft | 90 kts | 349° |
| 2026-04-30 20:26 | 41.64224 | 19.68952 | 4445 ft | 157 kts | 341° |
| 2026-04-30 20:26 | 41.66232 | 19.67802 | 4982 ft | 162 kts | 318° |
| 2026-04-30 20:26 | 41.67199 | 19.67294 | 5025 ft | 144 kts | 11° |
| 2026-04-30 20:27 | 41.69522 | 19.67046 | 3894 ft | 206 kts | 336° |
| 2026-04-30 20:27 | 41.72121 | 19.65316 | 2857 ft | 206 kts | 317° |
| 2026-04-30 20:28 | 41.74105 | 19.63168 | 3134 ft | 180 kts | 327° |
| 2026-04-30 20:28 | 41.76213 | 19.61586 | 3261 ft | 170 kts | 328° |
| 2026-04-30 20:29 | 41.78237 | 19.60078 | 3398 ft | 166 kts | 328° |
| 2026-04-30 20:30 | 41.81232 | 19.57728 | 3612 ft | 174 kts | 327° |
| 2026-04-30 20:30 | 41.84587 | 19.55205 | 3516 ft | 197 kts | 330° |
| 2026-04-30 20:31 | 41.88247 | 19.52306 | 3198 ft | 208 kts | 327° |
| 2026-04-30 20:32 | 41.92025 | 19.49488 | 2768 ft | 207 kts | 326° |
| 2026-04-30 20:32 | 41.94561 | 19.47456 | 2289 ft | 210 kts | 326° |
| 2026-04-30 20:33 | 41.95834 | 19.46556 | 2251 ft | 204 kts | 328° |
| 2026-04-30 20:33 | 41.98245 | 19.44725 | 2254 ft | 197 kts | 331° |
| 2026-04-30 20:33 | 41.99541 | 19.44149 | 2187 ft | 195 kts | 338° |
| 2026-04-30 20:34 | 42.02057 | 19.43000 | 2307 ft | 189 kts | 333° |
| 2026-04-30 20:34 | 42.04578 | 19.41801 | 2206 ft | 199 kts | 330° |
| 2026-04-30 20:35 | 42.05884 | 19.41120 | 1943 ft | 207 kts | 332° |
| 2026-04-30 20:35 | 42.07241 | 19.40457 | 1908 ft | 209 kts | 332° |
| 2026-04-30 20:35 | 42.09984 | 19.39161 | 1745 ft | 208 kts | 334° |
| 2026-04-30 20:36 | 42.11352 | 19.38546 | 1688 ft | 207 kts | 333° |
| 2026-04-30 20:36 | 42.12717 | 19.37928 | 1625 ft | 205 kts | 332° |
| 2026-04-30 20:36 | 42.15445 | 19.36539 | 1274 ft | 207 kts | 331° |
| 2026-04-30 20:37 | 42.16805 | 19.35926 | 1226 ft | 204 kts | 333° |
| 2026-04-30 20:37 | 42.18125 | 19.35404 | 1237 ft | 195 kts | 336° |
| 2026-04-30 20:37 | 42.19365 | 19.34858 | 1497 ft | 182 kts | 328° |
| 2026-04-30 20:37 | 42.20525 | 19.34245 | 1619 ft | 178 kts | 336° |
| 2026-04-30 20:38 | 42.21682 | 19.33777 | 1896 ft | 169 kts | 330° |
| 2026-04-30 20:38 | 42.22753 | 19.33159 | 2142 ft | 166 kts | 327° |
| 2026-04-30 20:38 | 42.23748 | 19.32407 | 2458 ft | 163 kts | 317° |
| 2026-04-30 20:39 | 42.25684 | 19.30809 | 2952 ft | 166 kts | 316° |
| 2026-04-30 20:39 | 42.26660 | 19.29889 | 3116 ft | 177 kts | 323° |
| 2026-04-30 20:39 | 42.27739 | 19.29080 | 3375 ft | 176 kts | 319° |
| 2026-04-30 20:40 | 42.29837 | 19.27329 | 3802 ft | 177 kts | 319° |
| 2026-04-30 20:40 | 42.30854 | 19.26382 | 3974 ft | 180 kts | 323° |
| 2026-04-30 20:40 | 42.31945 | 19.25563 | 4221 ft | 178 kts | 319° |
| 2026-04-30 20:41 | 42.34064 | 19.23791 | 4647 ft | 178 kts | 320° |
| 2026-04-30 20:41 | 42.35073 | 19.22847 | 4830 ft | 181 kts | 323° |
| 2026-04-30 20:41 | 42.36173 | 19.22025 | 5068 ft | 179 kts | 320° |
| 2026-04-30 20:41 | 42.37196 | 19.21064 | 5258 ft | 180 kts | 323° |
| 2026-04-30 20:42 | 42.38293 | 19.20242 | 5485 ft | 179 kts | 321° |
| 2026-04-30 20:42 | 42.39319 | 19.19281 | 5684 ft | 181 kts | 323° |
| 2026-04-30 20:42 | 42.41455 | 19.17482 | 6119 ft | 182 kts | 323° |
| 2026-04-30 20:43 | 42.42570 | 19.16646 | 6332 ft | 182 kts | 322° |
| 2026-04-30 20:43 | 42.43609 | 19.15671 | 6550 ft | 183 kts | 323° |
| 2026-04-30 20:43 | 42.44712 | 19.14839 | 6739 ft | 183 kts | 323° |
| 2026-04-30 20:44 | 42.46888 | 19.13002 | 7125 ft | 185 kts | 323° |
| 2026-04-30 20:44 | 42.47946 | 19.12023 | 7356 ft | 185 kts | 321° |
| 2026-04-30 20:44 | 42.50125 | 19.10191 | 7763 ft | 183 kts | 320° |
| 2026-04-30 20:45 | 42.52263 | 19.08400 | 8201 ft | 181 kts | 318° |
| 2026-04-30 20:45 | 42.53365 | 19.07526 | 8331 ft | 185 kts | 325° |
| 2026-04-30 20:45 | 42.54430 | 19.06578 | 8633 ft | 182 kts | 317° |
| 2026-04-30 20:46 | 42.57693 | 19.03824 | 9185 ft | 185 kts | 323° |
| 2026-04-30 20:46 | 42.58790 | 19.02928 | 9476 ft | 182 kts | 316° |
| 2026-04-30 20:47 | 42.60935 | 19.01133 | 9900 ft | 179 kts | 317° |
| 2026-04-30 20:47 | 42.61971 | 19.00186 | 10067 ft | 181 kts | 322° |
| 2026-04-30 20:48 | 42.64072 | 18.98399 | 10500 ft | 179 kts | 321° |
| 2026-04-30 20:48 | 42.65157 | 18.97573 | 10743 ft | 177 kts | 317° |
| 2026-04-30 20:48 | 42.66165 | 18.96620 | 10944 ft | 177 kts | 319° |
| 2026-04-30 20:48 | 42.67250 | 18.95800 | 11164 ft | 176 kts | 319° |
| 2026-04-30 20:49 | 42.68242 | 18.94866 | 11415 ft | 176 kts | 317° |
| 2026-04-30 20:49 | 42.69316 | 18.94038 | 11586 ft | 176 kts | 320° |
| 2026-04-30 20:49 | 42.70323 | 18.93117 | 11873 ft | 174 kts | 316° |
| 2026-04-30 20:50 | 42.72396 | 18.91372 | 12336 ft | 173 kts | 316° |
| 2026-04-30 20:50 | 42.73434 | 18.90504 | 12492 ft | 177 kts | 323° |
| 2026-04-30 20:50 | 42.74461 | 18.89627 | 12818 ft | 174 kts | 315° |
| 2026-04-30 20:50 | 42.75489 | 18.88738 | 12971 ft | 177 kts | 323° |
| 2026-04-30 20:51 | 42.76525 | 18.87883 | 13292 ft | 172 kts | 316° |
| 2026-04-30 20:51 | 42.78569 | 18.86158 | 13785 ft | 171 kts | 316° |
| 2026-04-30 20:51 | 42.79551 | 18.85248 | 14004 ft | 173 kts | 321° |
| 2026-04-30 20:52 | 42.80252 | 18.84732 | 14159 ft | 171 kts | 320° |
| 2026-04-30 20:52 | 42.81549 | 18.83545 | 14497 ft | 170 kts | 317° |
| 2026-04-30 20:52 | 42.83553 | 18.81861 | 14985 ft | 167 kts | 315° |
| 2026-04-30 20:53 | 42.84218 | 18.81279 | 15089 ft | 170 kts | 322° |
| 2026-04-30 20:53 | 42.85220 | 18.80487 | 15390 ft | 166 kts | 316° |
| 2026-04-30 20:53 | 42.86175 | 18.79592 | 15617 ft | 168 kts | 319° |
| 2026-04-30 20:54 | 42.88143 | 18.77935 | 16152 ft | 164 kts | 315° |
| 2026-04-30 20:54 | 42.89135 | 18.77127 | 16355 ft | 167 kts | 321° |
| 2026-04-30 20:54 | 42.90105 | 18.76289 | 16680 ft | 165 kts | 315° |
| 2026-04-30 20:55 | 42.92063 | 18.74638 | 17206 ft | 165 kts | 316° |
| 2026-04-30 20:55 | 42.93009 | 18.73754 | 17483 ft | 165 kts | 315° |
| 2026-04-30 20:55 | 42.94012 | 18.72965 | 17721 ft | 165 kts | 319° |
| 2026-04-30 20:56 | 42.95912 | 18.71267 | 18268 ft | 166 kts | 321° |
| 2026-04-30 20:56 | 42.96900 | 18.70485 | 18605 ft | 162 kts | 315° |
| 2026-04-30 20:56 | 42.98786 | 18.68864 | 19061 ft | 161 kts | 319° |
| 2026-04-30 20:57 | 42.99712 | 18.68049 | 19361 ft | 157 kts | 314° |
| 2026-04-30 20:57 | 43.00625 | 18.67211 | 19615 ft | 158 kts | 315° |
| 2026-04-30 20:57 | 43.01587 | 18.66461 | 19863 ft | 157 kts | 316° |
| 2026-04-30 20:58 | 43.03386 | 18.64835 | 20407 ft | 155 kts | 316° |
| 2026-04-30 20:58 | 43.04314 | 18.64115 | 20686 ft | 152 kts | 314° |
| 2026-04-30 20:58 | 43.05189 | 18.63324 | 20973 ft | 150 kts | 313° |
| 2026-04-30 20:58 | 43.06058 | 18.62544 | 21255 ft | 149 kts | 313° |
| 2026-04-30 20:59 | 43.07809 | 18.61085 | 21849 ft | 144 kts | 313° |
| 2026-04-30 20:59 | 43.08642 | 18.60343 | 22149 ft | 142 kts | 313° |
| 2026-04-30 21:00 | 43.10263 | 18.58921 | 22771 ft | 135 kts | 312° |
| 2026-04-30 21:00 | 43.11790 | 18.57592 | 23421 ft | 124 kts | 311° |
| 2026-04-30 21:01 | 43.13172 | 18.56437 | 24048 ft | 106 kts | 309° |
| 2026-04-30 21:01 | 43.13764 | 18.55871 | 24025 ft | 118 kts | 304° |
| 2026-04-30 21:01 | 43.15752 | 18.53650 | 22594 ft | 218 kts | 308° |
| 2026-04-30 21:02 | 43.16932 | 18.52264 | 22360 ft | 222 kts | 309° |
| 2026-04-30 21:02 | 43.18076 | 18.51059 | 23059 ft | 198 kts | 311° |
| 2026-04-30 21:02 | 43.19105 | 18.49988 | 23535 ft | 176 kts | 314° |
| 2026-04-30 21:02 | 43.20258 | 18.49376 | 23573 ft | 174 kts | 325° |
| 2026-04-30 21:03 | 43.21230 | 18.48611 | 23926 ft | 153 kts | 308° |
| 2026-04-30 21:03 | 43.22027 | 18.47698 | 24066 ft | 150 kts | 307° |
| 2026-04-30 21:03 | 43.22842 | 18.46789 | 24182 ft | 151 kts | 308° |
| 2026-04-30 21:03 | 43.23680 | 18.45899 | 24305 ft | 152 kts | 309° |
| 2026-04-30 21:04 | 43.24521 | 18.45016 | 24444 ft | 152 kts | 309° |
| 2026-04-30 21:04 | 43.25363 | 18.44131 | 24584 ft | 152 kts | 309° |
| 2026-04-30 21:04 | 43.27110 | 18.42267 | 24594 ft | 167 kts | 309° |
| 2026-04-30 21:05 | 43.28042 | 18.41257 | 24590 ft | 173 kts | 308° |
| 2026-04-30 21:05 | 43.29000 | 18.40209 | 24590 ft | 178 kts | 308° |
| 2026-04-30 21:05 | 43.30015 | 18.39185 | 24558 ft | 184 kts | 313° |
| 2026-04-30 21:05 | 43.31030 | 18.38134 | 24594 ft | 184 kts | 308° |
| 2026-04-30 21:06 | 43.32041 | 18.37026 | 24553 ft | 189 kts | 311° |
| 2026-04-30 21:06 | 43.33118 | 18.35986 | 24601 ft | 188 kts | 309° |
| 2026-04-30 21:06 | 43.34143 | 18.34845 | 24578 ft | 191 kts | 309° |
| 2026-04-30 21:06 | 43.35236 | 18.33776 | 24554 ft | 192 kts | 311° |
| 2026-04-30 21:07 | 43.36283 | 18.32649 | 24583 ft | 192 kts | 308° |
| 2026-04-30 21:07 | 43.37357 | 18.31528 | 24522 ft | 196 kts | 314° |
| 2026-04-30 21:07 | 43.38442 | 18.30425 | 24593 ft | 193 kts | 309° |
| 2026-04-30 21:07 | 43.39483 | 18.29281 | 24537 ft | 196 kts | 312° |
| 2026-04-30 21:08 | 43.40594 | 18.28200 | 24587 ft | 194 kts | 309° |
| 2026-04-30 21:08 | 43.41642 | 18.27030 | 24571 ft | 195 kts | 310° |
| 2026-04-30 21:08 | 43.42757 | 18.25946 | 24561 ft | 194 kts | 311° |
| 2026-04-30 21:08 | 43.43811 | 18.24795 | 24586 ft | 194 kts | 309° |
| 2026-04-30 21:09 | 43.44902 | 18.23676 | 24522 ft | 197 kts | 313° |
| 2026-04-30 21:09 | 43.45984 | 18.22550 | 24592 ft | 194 kts | 309° |
| 2026-04-30 21:09 | 43.47039 | 18.21407 | 24534 ft | 197 kts | 313° |
| 2026-04-30 21:09 | 43.48148 | 18.20308 | 24595 ft | 194 kts | 309° |
| 2026-04-30 21:10 | 43.49201 | 18.19131 | 24557 ft | 196 kts | 311° |
| 2026-04-30 21:10 | 43.50324 | 18.18040 | 24575 ft | 195 kts | 310° |
| 2026-04-30 21:10 | 43.51380 | 18.16866 | 24588 ft | 196 kts | 309° |
| 2026-04-30 21:10 | 43.52493 | 18.15755 | 24555 ft | 197 kts | 312° |
| 2026-04-30 21:11 | 43.53564 | 18.14610 | 24609 ft | 195 kts | 309° |
| 2026-04-30 21:11 | 43.54644 | 18.13458 | 24549 ft | 198 kts | 314° |
| 2026-04-30 21:11 | 43.55749 | 18.12344 | 24623 ft | 195 kts | 309° |
| 2026-04-30 21:11 | 43.56812 | 18.11157 | 24575 ft | 198 kts | 312° |
| 2026-04-30 21:12 | 43.57937 | 18.10062 | 24605 ft | 196 kts | 310° |
| 2026-04-30 21:12 | 43.58986 | 18.08885 | 24611 ft | 197 kts | 309° |
| 2026-04-30 21:12 | 43.60108 | 18.07767 | 24571 ft | 198 kts | 313° |
| 2026-04-30 21:12 | 43.61185 | 18.06603 | 24617 ft | 196 kts | 309° |
| 2026-04-30 21:13 | 43.62279 | 18.05450 | 24556 ft | 200 kts | 314° |
| 2026-04-30 21:13 | 43.63380 | 18.04318 | 24625 ft | 196 kts | 309° |
| 2026-04-30 21:13 | 43.64454 | 18.03127 | 24570 ft | 200 kts | 313° |
| 2026-04-30 21:13 | 43.65586 | 18.02010 | 24617 ft | 197 kts | 310° |
| 2026-04-30 21:14 | 43.66634 | 18.00826 | 24602 ft | 199 kts | 307° |
| 2026-04-30 21:14 | 43.67455 | 17.99196 | 24027 ft | 222 kts | 283° |
| 2026-04-30 21:14 | 43.67739 | 17.97393 | 25036 ft | 178 kts | 266° |
| 2026-04-30 21:14 | 43.67757 | 17.95566 | 24872 ft | 202 kts | 261° |
| 2026-04-30 21:15 | 43.67608 | 17.93429 | 24224 ft | 240 kts | 264° |
| 2026-04-30 21:15 | 43.67865 | 17.91132 | 23350 ft | 249 kts | 290° |
| 2026-04-30 21:15 | 43.69058 | 17.89360 | 22588 ft | 253 kts | 313° |
| 2026-04-30 21:15 | 43.70574 | 17.88093 | 21614 ft | 259 kts | 329° |
| 2026-04-30 21:16 | 43.72372 | 17.87443 | 20620 ft | 266 kts | 342° |
| 2026-04-30 21:16 | 43.74126 | 17.87587 | 20371 ft | 251 kts | 2° |
| 2026-04-30 21:16 | 43.75790 | 17.88285 | 19968 ft | 246 kts | 7° |
| 2026-04-30 21:16 | 43.77408 | 17.88554 | 19998 ft | 226 kts | 348° |
| 2026-04-30 21:17 | 43.78947 | 17.88343 | 19783 ft | 225 kts | 332° |
| 2026-04-30 21:17 | 43.80305 | 17.87385 | 19769 ft | 216 kts | 324° |
| 2026-04-30 21:17 | 43.81681 | 17.86481 | 19426 ft | 223 kts | 329° |
| 2026-04-30 21:17 | 43.83055 | 17.85502 | 19530 ft | 206 kts | 320° |
| 2026-04-30 21:18 | 43.84113 | 17.84385 | 19947 ft | 188 kts | 310° |
| 2026-04-30 21:18 | 43.85095 | 17.83081 | 19663 ft | 204 kts | 308° |
| 2026-04-30 21:18 | 43.86105 | 17.81729 | 19670 ft | 201 kts | 312° |
| 2026-04-30 21:18 | 43.87166 | 17.80445 | 19550 ft | 205 kts | 317° |
| 2026-04-30 21:19 | 43.88462 | 17.79463 | 19127 ft | 215 kts | 332° |
| 2026-04-30 21:19 | 43.89803 | 17.78501 | 19037 ft | 208 kts | 324° |
| 2026-04-30 21:19 | 43.91108 | 17.77648 | 18609 ft | 219 kts | 329° |
| 2026-04-30 21:19 | 43.92589 | 17.76768 | 17383 ft | 241 kts | 332° |
| 2026-04-30 21:20 | 43.94266 | 17.76696 | 16693 ft | 236 kts | 8° |
| 2026-04-30 21:20 | 43.95614 | 17.77888 | 16323 ft | 227 kts | 36° |
| 2026-04-30 21:20 | 43.96464 | 17.79768 | 15387 ft | 238 kts | 48° |
| 2026-04-30 21:20 | 43.97148 | 17.81931 | 13898 ft | 253 kts | 62° |
| 2026-04-30 21:21 | 43.97495 | 17.84412 | 12181 ft | 260 kts | 57° |
| 2026-04-30 21:21 | 43.98751 | 17.85979 | 9687 ft | 277 kts | 32° |
| 2026-04-30 21:21 | 43.98586 | 17.90102 | 9225 ft | 233 kts | 115° |
| 2026-04-30 21:22 | 43.97770 | 17.92006 | 8741 ft | 233 kts | 119° |
| 2026-04-30 21:22 | 43.95280 | 17.97568 | 7615 ft | 214 kts | 118° |
| 2026-04-30 21:23 | 43.94488 | 17.99284 | 7407 ft | 209 kts | 117° |
| 2026-04-30 21:23 | 43.93756 | 18.01012 | 7175 ft | 207 kts | 114° |
| 2026-04-30 21:23 | 43.92350 | 18.04535 | 6599 ft | 208 kts | 114° |
| 2026-04-30 21:24 | 43.91652 | 18.06261 | 6201 ft | 206 kts | 115° |
| 2026-04-30 21:24 | 43.90948 | 18.07949 | 5939 ft | 197 kts | 114° |
| 2026-04-30 21:24 | 43.90291 | 18.09598 | 5720 ft | 194 kts | 114° |
| 2026-04-30 21:24 | 43.89657 | 18.11285 | 5526 ft | 201 kts | 108° |
| 2026-04-30 21:25 | 43.88501 | 18.14846 | 5014 ft | 203 kts | 110° |
| 2026-04-30 21:25 | 43.87976 | 18.16615 | 4739 ft | 194 kts | 109° |
| 2026-04-30 21:25 | 43.87503 | 18.18355 | 4414 ft | 190 kts | 108° |
| 2026-04-30 21:26 | 43.86434 | 18.21461 | 3494 ft | 169 kts | 115° |
| 2026-04-30 21:26 | 43.85856 | 18.22871 | 3108 ft | 167 kts | 112° |
| 2026-04-30 21:27 | 43.85073 | 18.25853 | 2468 ft | 130 kts | 113° |
| 2026-04-30 21:27 | 43.84756 | 18.26914 | 2344 ft | 116 kts | 112° |
| 2026-04-30 21:27 | 43.84442 | 18.27928 | 2228 ft | 113 kts | 116° |
| 2026-04-30 21:28 | 43.83721 | 18.29790 | 2010 ft | 107 kts | 120° |
| 2026-04-30 21:28 | 43.83389 | 18.30674 | 1869 ft | 99 kts | 120° |
| 2026-04-30 21:28 | 43.82842 | 18.32131 | 1661 ft | 77 kts | 119° |
| 2026-04-30 21:29 | 43.82631 | 18.32706 | 1666 ft | 57 kts | 114° |
| 2026-04-30 21:29 | 43.82391 | 18.33347 | 1679 ft | 5 kts | 111° |
| 2026-04-30 21:30 | 43.82388 | 18.33358 | 1677 ft | 0 kts | 113° |
| 2026-04-30 21:31 | 43.82306 | 18.33568 | 1685 ft | 19 kts | 121° |
| 2026-04-30 21:31 | 43.82411 | 18.33644 | 1685 ft | 14 kts | 14° |
| 2026-04-30 21:32 | 43.82536 | 18.33600 | 1684 ft | 15 kts | 294° |
| 2026-04-30 21:32 | 43.82563 | 18.33454 | 1677 ft | 8 kts | 282° |
| 2026-04-30 21:32 | 43.82565 | 18.33438 | 1675 ft | 0 kts | 279° |
| 2026-04-30 21:32 | 43.82567 | 18.33435 | 1675 ft | 2 kts | 324° |
| 2026-04-30 21:33 | 43.82572 | 18.33435 | 1682 ft | 0 kts | 30° |
| 2026-04-30 21:33 | 43.82505 | 18.33092 | 1669 ft | 39 kts | 277° |
| 2026-04-30 21:33 | 43.82641 | 18.32706 | 1666 ft | 61 kts | 295° |
| 2026-04-30 21:34 | 43.82882 | 18.32039 | 1703 ft | 93 kts | 295° |
| 2026-04-30 21:34 | 43.83773 | 18.29844 | 1992 ft | 168 kts | 302° |
| 2026-04-30 21:34 | 43.84563 | 18.28477 | 2003 ft | 198 kts | 320° |
| 2026-04-30 21:35 | 43.85262 | 18.26981 | 2765 ft | 178 kts | 299° |
| 2026-04-30 21:35 | 43.85694 | 18.25409 | 3188 ft | 178 kts | 300° |
| 2026-04-30 21:35 | 43.86207 | 18.23769 | 3179 ft | 196 kts | 316° |
| 2026-04-30 21:35 | 43.87313 | 18.22690 | 3273 ft | 199 kts | 329° |
| 2026-04-30 21:36 | 43.88381 | 18.21637 | 3382 ft | 182 kts | 333° |